sensor_id;sensor_type;location;lat;lon;timestamp;P1;durP1;ratioP1;P2;durP2;ratioP2
61096;SDS011;46977;50.936;6.908;2023-01-29T00:02:20;17.13;;;13.18;;
61096;SDS011;46977;50.936;6.908;2023-01-29T00:05:22;17.02;;;13.95;;
61096;SDS011;46977;50.936;6.908;2023-01-29T00:08:29;14.38;;;12.77;;
61096;SDS011;46977;50.936;6.908;2023-01-29T00:11:33;16.00;;;13.52;;
61096;SDS011;46977;50.936;6.908;2023-01-29T00:14:35;17.20;;;13.45;;
61096;SDS011;46977;50.936;6.908;2023-01-29T00:17:38;14.93;;;12.93;;
61096;SDS011;46977;50.936;6.908;2023-01-29T00:20:41;14.75;;;13.20;;
61096;SDS011;46977;50.936;6.908;2023-01-29T00:23:44;15.48;;;12.27;;
61096;SDS011;46977;50.936;6.908;2023-01-29T00:26:48;14.48;;;12.32;;
61096;SDS011;46977;50.936;6.908;2023-01-29T00:29:51;17.45;;;14.25;;
61096;SDS011;46977;50.936;6.908;2023-01-29T00:33:10;14.38;;;12.75;;
61096;SDS011;46977;50.936;6.908;2023-01-29T00:36:15;16.52;;;13.18;;
61096;SDS011;46977;50.936;6.908;2023-01-29T00:39:19;16.45;;;13.38;;
61096;SDS011;46977;50.936;6.908;2023-01-29T00:42:42;16.42;;;13.45;;
61096;SDS011;46977;50.936;6.908;2023-01-29T00:46:03;14.00;;;12.48;;
61096;SDS011;46977;50.936;6.908;2023-01-29T00:49:07;17.60;;;13.77;;
61096;SDS011;46977;50.936;6.908;2023-01-29T00:52:10;16.88;;;13.32;;
61096;SDS011;46977;50.936;6.908;2023-01-29T00:55:27;15.18;;;12.57;;
61096;SDS011;46977;50.936;6.908;2023-01-29T00:58:31;17.77;;;13.88;;
61096;SDS011;46977;50.936;6.908;2023-01-29T01:01:35;15.80;;;12.85;;
61096;SDS011;46977;50.936;6.908;2023-01-29T01:04:56;18.35;;;12.95;;
61096;SDS011;46977;50.936;6.908;2023-01-29T01:07:58;13.95;;;11.38;;
61096;SDS011;46977;50.936;6.908;2023-01-29T01:11:01;14.63;;;12.85;;
61096;SDS011;46977;50.936;6.908;2023-01-29T01:14:07;13.02;;;11.60;;
61096;SDS011;46977;50.936;6.908;2023-01-29T01:17:10;18.27;;;13.48;;
61096;SDS011;46977;50.936;6.908;2023-01-29T01:20:12;13.45;;;12.05;;
61096;SDS011;46977;50.936;6.908;2023-01-29T01:23:15;14.13;;;12.30;;
61096;SDS011;46977;50.936;6.908;2023-01-29T01:26:17;15.63;;;13.60;;
61096;SDS011;46977;50.936;6.908;2023-01-29T01:29:21;15.70;;;12.82;;
61096;SDS011;46977;50.936;6.908;2023-01-29T01:32:23;13.32;;;11.63;;
61096;SDS011;46977;50.936;6.908;2023-01-29T01:35:27;14.88;;;12.27;;
61096;SDS011;46977;50.936;6.908;2023-01-29T01:38:29;15.15;;;13.15;;
61096;SDS011;46977;50.936;6.908;2023-01-29T01:41:31;16.50;;;13.88;;
61096;SDS011;46977;50.936;6.908;2023-01-29T01:44:54;14.48;;;12.77;;
61096;SDS011;46977;50.936;6.908;2023-01-29T01:48:00;15.55;;;12.95;;
61096;SDS011;46977;50.936;6.908;2023-01-29T01:51:05;15.23;;;12.65;;
61096;SDS011;46977;50.936;6.908;2023-01-29T01:54:08;15.27;;;12.05;;
61096;SDS011;46977;50.936;6.908;2023-01-29T01:57:13;14.82;;;12.25;;
61096;SDS011;46977;50.936;6.908;2023-01-29T02:00:18;15.50;;;11.80;;
61096;SDS011;46977;50.936;6.908;2023-01-29T02:03:23;17.10;;;13.35;;
61096;SDS011;46977;50.936;6.908;2023-01-29T02:06:44;16.23;;;12.60;;
61096;SDS011;46977;50.936;6.908;2023-01-29T02:10:07;16.45;;;13.35;;
61096;SDS011;46977;50.936;6.908;2023-01-29T02:13:11;15.48;;;12.77;;
61096;SDS011;46977;50.936;6.908;2023-01-29T02:16:18;15.52;;;12.65;;
61096;SDS011;46977;50.936;6.908;2023-01-29T02:19:22;16.13;;;13.20;;
61096;SDS011;46977;50.936;6.908;2023-01-29T02:22:45;17.23;;;13.52;;
61096;SDS011;46977;50.936;6.908;2023-01-29T02:26:18;14.52;;;12.43;;
61096;SDS011;46977;50.936;6.908;2023-01-29T02:29:37;14.52;;;12.30;;
61096;SDS011;46977;50.936;6.908;2023-01-29T02:32:46;15.90;;;11.73;;
61096;SDS011;46977;50.936;6.908;2023-01-29T02:35:57;14.45;;;12.73;;
61096;SDS011;46977;50.936;6.908;2023-01-29T02:39:05;14.88;;;12.07;;
61096;SDS011;46977;50.936;6.908;2023-01-29T02:42:15;14.68;;;13.02;;
61096;SDS011;46977;50.936;6.908;2023-01-29T02:45:26;14.57;;;12.05;;
61096;SDS011;46977;50.936;6.908;2023-01-29T02:48:37;14.32;;;12.38;;
61096;SDS011;46977;50.936;6.908;2023-01-29T02:51:42;15.25;;;12.48;;
61096;SDS011;46977;50.936;6.908;2023-01-29T02:54:46;16.05;;;12.98;;
61096;SDS011;46977;50.936;6.908;2023-01-29T02:57:53;15.02;;;12.02;;
61096;SDS011;46977;50.936;6.908;2023-01-29T03:01:00;15.52;;;12.93;;
61096;SDS011;46977;50.936;6.908;2023-01-29T03:04:10;15.82;;;12.35;;
61096;SDS011;46977;50.936;6.908;2023-01-29T03:07:15;15.65;;;13.00;;
61096;SDS011;46977;50.936;6.908;2023-01-29T03:10:40;15.15;;;12.85;;
61096;SDS011;46977;50.936;6.908;2023-01-29T03:13:46;14.55;;;12.13;;
61096;SDS011;46977;50.936;6.908;2023-01-29T03:16:53;15.77;;;13.27;;
61096;SDS011;46977;50.936;6.908;2023-01-29T03:19:56;15.30;;;12.95;;
61096;SDS011;46977;50.936;6.908;2023-01-29T03:23:00;15.05;;;12.50;;
61096;SDS011;46977;50.936;6.908;2023-01-29T03:26:05;15.65;;;11.65;;
61096;SDS011;46977;50.936;6.908;2023-01-29T03:29:26;16.93;;;13.00;;
61096;SDS011;46977;50.936;6.908;2023-01-29T03:32:49;15.80;;;12.57;;
61096;SDS011;46977;50.936;6.908;2023-01-29T03:35:55;16.05;;;12.73;;
61096;SDS011;46977;50.936;6.908;2023-01-29T03:39:03;15.23;;;12.75;;
61096;SDS011;46977;50.936;6.908;2023-01-29T03:42:09;15.77;;;12.18;;
61096;SDS011;46977;50.936;6.908;2023-01-29T03:45:17;15.52;;;12.65;;
61096;SDS011;46977;50.936;6.908;2023-01-29T03:48:27;15.55;;;12.82;;
61096;SDS011;46977;50.936;6.908;2023-01-29T03:51:34;15.52;;;12.73;;
61096;SDS011;46977;50.936;6.908;2023-01-29T03:54:39;14.05;;;12.27;;
61096;SDS011;46977;50.936;6.908;2023-01-29T03:57:51;15.05;;;12.18;;
61096;SDS011;46977;50.936;6.908;2023-01-29T04:00:57;14.48;;;12.05;;
61096;SDS011;46977;50.936;6.908;2023-01-29T04:04:07;13.23;;;11.82;;
61096;SDS011;46977;50.936;6.908;2023-01-29T04:07:13;14.75;;;11.32;;
61096;SDS011;46977;50.936;6.908;2023-01-29T04:10:18;13.15;;;10.88;;
61096;SDS011;46977;50.936;6.908;2023-01-29T04:13:22;14.30;;;12.65;;
61096;SDS011;46977;50.936;6.908;2023-01-29T04:16:26;14.13;;;11.60;;
61096;SDS011;46977;50.936;6.908;2023-01-29T04:19:50;14.48;;;11.80;;
61096;SDS011;46977;50.936;6.908;2023-01-29T04:22:53;15.23;;;11.75;;
61096;SDS011;46977;50.936;6.908;2023-01-29T04:26:00;15.13;;;12.50;;
61096;SDS011;46977;50.936;6.908;2023-01-29T04:29:18;14.60;;;12.35;;
61096;SDS011;46977;50.936;6.908;2023-01-29T04:32:31;14.25;;;11.07;;
61096;SDS011;46977;50.936;6.908;2023-01-29T04:35:39;17.88;;;12.90;;
61096;SDS011;46977;50.936;6.908;2023-01-29T04:38:51;15.40;;;12.32;;
61096;SDS011;46977;50.936;6.908;2023-01-29T04:42:04;14.48;;;11.65;;
61096;SDS011;46977;50.936;6.908;2023-01-29T04:45:10;15.98;;;12.85;;
61096;SDS011;46977;50.936;6.908;2023-01-29T04:48:25;13.80;;;11.02;;
61096;SDS011;46977;50.936;6.908;2023-01-29T04:51:33;14.30;;;12.23;;
61096;SDS011;46977;50.936;6.908;2023-01-29T04:54:45;15.80;;;12.50;;
61096;SDS011;46977;50.936;6.908;2023-01-29T04:57:53;14.65;;;11.15;;
61096;SDS011;46977;50.936;6.908;2023-01-29T05:01:01;15.88;;;12.20;;
61096;SDS011;46977;50.936;6.908;2023-01-29T05:04:08;14.07;;;11.40;;
61096;SDS011;46977;50.936;6.908;2023-01-29T05:07:14;15.05;;;11.75;;
61096;SDS011;46977;50.936;6.908;2023-01-29T05:10:19;14.55;;;12.43;;
61096;SDS011;46977;50.936;6.908;2023-01-29T05:13:22;15.55;;;11.88;;
61096;SDS011;46977;50.936;6.908;2023-01-29T05:16:26;15.02;;;12.52;;
61096;SDS011;46977;50.936;6.908;2023-01-29T05:19:31;13.18;;;11.20;;
61096;SDS011;46977;50.936;6.908;2023-01-29T05:22:36;16.77;;;12.10;;
61096;SDS011;46977;50.936;6.908;2023-01-29T05:25:40;14.88;;;12.07;;
61096;SDS011;46977;50.936;6.908;2023-01-29T05:28:43;15.20;;;13.18;;
61096;SDS011;46977;50.936;6.908;2023-01-29T05:31:45;15.32;;;12.77;;
61096;SDS011;46977;50.936;6.908;2023-01-29T05:34:48;15.95;;;12.32;;
61096;SDS011;46977;50.936;6.908;2023-01-29T05:37:51;16.10;;;12.35;;
61096;SDS011;46977;50.936;6.908;2023-01-29T05:40:54;16.77;;;12.68;;
61096;SDS011;46977;50.936;6.908;2023-01-29T05:43:59;15.10;;;12.13;;
61096;SDS011;46977;50.936;6.908;2023-01-29T05:47:01;16.30;;;12.23;;
61096;SDS011;46977;50.936;6.908;2023-01-29T05:50:04;15.27;;;11.95;;
61096;SDS011;46977;50.936;6.908;2023-01-29T05:53:08;15.38;;;12.05;;
61096;SDS011;46977;50.936;6.908;2023-01-29T05:56:11;15.25;;;12.52;;
61096;SDS011;46977;50.936;6.908;2023-01-29T05:59:13;15.32;;;12.15;;
61096;SDS011;46977;50.936;6.908;2023-01-29T06:02:16;14.60;;;11.85;;
61096;SDS011;46977;50.936;6.908;2023-01-29T06:05:18;14.73;;;11.25;;
61096;SDS011;46977;50.936;6.908;2023-01-29T06:08:22;14.80;;;11.30;;
61096;SDS011;46977;50.936;6.908;2023-01-29T06:11:25;14.38;;;11.85;;
61096;SDS011;46977;50.936;6.908;2023-01-29T06:14:27;15.65;;;12.23;;
61096;SDS011;46977;50.936;6.908;2023-01-29T06:17:29;16.42;;;11.80;;
61096;SDS011;46977;50.936;6.908;2023-01-29T06:20:32;14.85;;;12.60;;
61096;SDS011;46977;50.936;6.908;2023-01-29T06:23:35;15.18;;;12.48;;
61096;SDS011;46977;50.936;6.908;2023-01-29T06:26:38;13.38;;;11.85;;
61096;SDS011;46977;50.936;6.908;2023-01-29T06:29:40;14.43;;;11.40;;
61096;SDS011;46977;50.936;6.908;2023-01-29T06:32:43;15.02;;;12.32;;
61096;SDS011;46977;50.936;6.908;2023-01-29T06:35:45;14.02;;;11.02;;
61096;SDS011;46977;50.936;6.908;2023-01-29T06:38:49;15.02;;;12.13;;
61096;SDS011;46977;50.936;6.908;2023-01-29T06:41:51;14.07;;;11.40;;
61096;SDS011;46977;50.936;6.908;2023-01-29T06:44:53;13.05;;;11.45;;
61096;SDS011;46977;50.936;6.908;2023-01-29T06:47:56;12.35;;;10.15;;
61096;SDS011;46977;50.936;6.908;2023-01-29T06:51:02;12.77;;;11.15;;
61096;SDS011;46977;50.936;6.908;2023-01-29T06:54:06;13.35;;;10.80;;
61096;SDS011;46977;50.936;6.908;2023-01-29T06:57:09;13.40;;;10.50;;
61096;SDS011;46977;50.936;6.908;2023-01-29T07:00:12;15.35;;;11.15;;
61096;SDS011;46977;50.936;6.908;2023-01-29T07:03:16;15.07;;;11.25;;
61096;SDS011;46977;50.936;6.908;2023-01-29T07:06:19;13.85;;;10.73;;
61096;SDS011;46977;50.936;6.908;2023-01-29T07:09:23;12.98;;;10.75;;
61096;SDS011;46977;50.936;6.908;2023-01-29T07:12:25;13.00;;;10.70;;
61096;SDS011;46977;50.936;6.908;2023-01-29T07:15:27;13.65;;;11.63;;
61096;SDS011;46977;50.936;6.908;2023-01-29T07:18:30;14.43;;;11.23;;
61096;SDS011;46977;50.936;6.908;2023-01-29T07:21:33;14.10;;;10.93;;
61096;SDS011;46977;50.936;6.908;2023-01-29T07:24:36;15.50;;;11.30;;
61096;SDS011;46977;50.936;6.908;2023-01-29T07:27:38;14.05;;;11.77;;
61096;SDS011;46977;50.936;6.908;2023-01-29T07:30:41;13.98;;;10.90;;
61096;SDS011;46977;50.936;6.908;2023-01-29T07:33:43;14.23;;;11.07;;
61096;SDS011;46977;50.936;6.908;2023-01-29T07:36:45;15.07;;;11.50;;
61096;SDS011;46977;50.936;6.908;2023-01-29T07:39:49;15.27;;;11.07;;
61096;SDS011;46977;50.936;6.908;2023-01-29T07:42:56;14.38;;;11.27;;
61096;SDS011;46977;50.936;6.908;2023-01-29T07:46:00;14.07;;;10.77;;
61096;SDS011;46977;50.936;6.908;2023-01-29T07:49:03;14.35;;;10.73;;
61096;SDS011;46977;50.936;6.908;2023-01-29T07:52:05;11.75;;;10.13;;
61096;SDS011;46977;50.936;6.908;2023-01-29T07:55:09;13.70;;;11.23;;
61096;SDS011;46977;50.936;6.908;2023-01-29T07:58:11;12.50;;;10.05;;
61096;SDS011;46977;50.936;6.908;2023-01-29T08:01:14;13.40;;;10.63;;
61096;SDS011;46977;50.936;6.908;2023-01-29T08:04:16;14.38;;;10.63;;
61096;SDS011;46977;50.936;6.908;2023-01-29T08:07:19;14.38;;;11.85;;
61096;SDS011;46977;50.936;6.908;2023-01-29T08:10:22;13.88;;;10.88;;
61096;SDS011;46977;50.936;6.908;2023-01-29T08:13:25;12.23;;;10.10;;
61096;SDS011;46977;50.936;6.908;2023-01-29T08:16:27;13.50;;;10.50;;
61096;SDS011;46977;50.936;6.908;2023-01-29T08:19:29;11.23;;;9.90;;
61096;SDS011;46977;50.936;6.908;2023-01-29T08:22:32;11.60;;;9.38;;
61096;SDS011;46977;50.936;6.908;2023-01-29T08:25:35;12.77;;;11.05;;
61096;SDS011;46977;50.936;6.908;2023-01-29T08:28:38;12.20;;;10.73;;
61096;SDS011;46977;50.936;6.908;2023-01-29T08:31:40;13.57;;;11.30;;
61096;SDS011;46977;50.936;6.908;2023-01-29T08:34:42;12.45;;;10.70;;
61096;SDS011;46977;50.936;6.908;2023-01-29T08:37:51;12.85;;;11.25;;
61096;SDS011;46977;50.936;6.908;2023-01-29T08:40:55;15.60;;;11.68;;
61096;SDS011;46977;50.936;6.908;2023-01-29T08:43:57;12.90;;;10.93;;
61096;SDS011;46977;50.936;6.908;2023-01-29T08:47:01;15.05;;;11.15;;
61096;SDS011;46977;50.936;6.908;2023-01-29T08:50:03;13.75;;;11.23;;
61096;SDS011;46977;50.936;6.908;2023-01-29T08:53:07;13.13;;;10.82;;
61096;SDS011;46977;50.936;6.908;2023-01-29T08:56:11;14.93;;;10.90;;
61096;SDS011;46977;50.936;6.908;2023-01-29T08:59:13;15.65;;;12.98;;
61096;SDS011;46977;50.936;6.908;2023-01-29T09:02:16;12.35;;;9.85;;
61096;SDS011;46977;50.936;6.908;2023-01-29T09:05:18;13.32;;;10.85;;
61096;SDS011;46977;50.936;6.908;2023-01-29T09:08:21;12.90;;;10.77;;
61096;SDS011;46977;50.936;6.908;2023-01-29T09:11:25;12.57;;;10.45;;
61096;SDS011;46977;50.936;6.908;2023-01-29T09:14:27;13.55;;;11.20;;
61096;SDS011;46977;50.936;6.908;2023-01-29T09:17:29;12.20;;;10.38;;
61096;SDS011;46977;50.936;6.908;2023-01-29T09:20:32;13.57;;;10.95;;
61096;SDS011;46977;50.936;6.908;2023-01-29T09:23:34;12.75;;;10.45;;
61096;SDS011;46977;50.936;6.908;2023-01-29T09:26:38;13.20;;;11.25;;
61096;SDS011;46977;50.936;6.908;2023-01-29T09:29:41;12.25;;;10.27;;
61096;SDS011;46977;50.936;6.908;2023-01-29T09:32:44;11.90;;;10.57;;
61096;SDS011;46977;50.936;6.908;2023-01-29T09:35:55;10.32;;;8.45;;
61096;SDS011;46977;50.936;6.908;2023-01-29T09:38:57;11.50;;;10.30;;
61096;SDS011;46977;50.936;6.908;2023-01-29T09:42:02;13.40;;;10.60;;
61096;SDS011;46977;50.936;6.908;2023-01-29T09:45:09;12.40;;;10.05;;
61096;SDS011;46977;50.936;6.908;2023-01-29T09:48:14;12.50;;;10.88;;
61096;SDS011;46977;50.936;6.908;2023-01-29T09:51:23;14.35;;;11.05;;
61096;SDS011;46977;50.936;6.908;2023-01-29T09:54:28;13.68;;;11.90;;
61096;SDS011;46977;50.936;6.908;2023-01-29T09:57:36;13.10;;;10.80;;
61096;SDS011;46977;50.936;6.908;2023-01-29T10:00:50;9.40;;;8.37;;
61096;SDS011;46977;50.936;6.908;2023-01-29T10:04:07;12.60;;;9.90;;
61096;SDS011;46977;50.936;6.908;2023-01-29T10:10:47;11.68;;;9.88;;
61096;SDS011;46977;50.936;6.908;2023-01-29T10:13:54;12.20;;;9.98;;
61096;SDS011;46977;50.936;6.908;2023-01-29T10:17:06;12.52;;;10.70;;
61096;SDS011;46977;50.936;6.908;2023-01-29T10:23:45;12.45;;;10.13;;
61096;SDS011;46977;50.936;6.908;2023-01-29T10:26:49;11.63;;;10.18;;
61096;SDS011;46977;50.936;6.908;2023-01-29T10:29:55;12.77;;;9.88;;
61096;SDS011;46977;50.936;6.908;2023-01-29T10:32:58;13.93;;;11.65;;
61096;SDS011;46977;50.936;6.908;2023-01-29T10:36:05;13.57;;;10.60;;
61096;SDS011;46977;50.936;6.908;2023-01-29T10:39:11;13.90;;;10.73;;
61096;SDS011;46977;50.936;6.908;2023-01-29T10:42:26;12.85;;;10.13;;
61096;SDS011;46977;50.936;6.908;2023-01-29T10:45:33;13.15;;;10.90;;
61096;SDS011;46977;50.936;6.908;2023-01-29T10:48:43;12.50;;;11.07;;
61096;SDS011;46977;50.936;6.908;2023-01-29T10:51:56;13.82;;;10.98;;
61096;SDS011;46977;50.936;6.908;2023-01-29T10:55:11;13.35;;;10.55;;
61096;SDS011;46977;50.936;6.908;2023-01-29T10:58:23;12.35;;;10.25;;
61096;SDS011;46977;50.936;6.908;2023-01-29T11:01:32;12.80;;;10.77;;
61096;SDS011;46977;50.936;6.908;2023-01-29T11:04:34;12.85;;;11.07;;
61096;SDS011;46977;50.936;6.908;2023-01-29T11:07:38;12.90;;;11.43;;
61096;SDS011;46977;50.936;6.908;2023-01-29T11:10:44;13.90;;;10.60;;
61096;SDS011;46977;50.936;6.908;2023-01-29T11:13:49;10.73;;;9.63;;
61096;SDS011;46977;50.936;6.908;2023-01-29T11:16:57;12.55;;;10.50;;
61096;SDS011;46977;50.936;6.908;2023-01-29T11:20:00;12.82;;;10.60;;
61096;SDS011;46977;50.936;6.908;2023-01-29T11:23:02;11.82;;;9.73;;
61096;SDS011;46977;50.936;6.908;2023-01-29T11:26:05;13.93;;;10.68;;
61096;SDS011;46977;50.936;6.908;2023-01-29T11:32:37;11.02;;;9.75;;
61096;SDS011;46977;50.936;6.908;2023-01-29T11:35:39;12.48;;;10.25;;
61096;SDS011;46977;50.936;6.908;2023-01-29T11:38:41;12.48;;;10.98;;
61096;SDS011;46977;50.936;6.908;2023-01-29T11:41:46;13.07;;;10.75;;
61096;SDS011;46977;50.936;6.908;2023-01-29T11:44:49;13.80;;;10.85;;
61096;SDS011;46977;50.936;6.908;2023-01-29T11:47:53;11.23;;;10.13;;
61096;SDS011;46977;50.936;6.908;2023-01-29T11:50:57;11.93;;;10.57;;
61096;SDS011;46977;50.936;6.908;2023-01-29T11:54:09;13.00;;;10.77;;
61096;SDS011;46977;50.936;6.908;2023-01-29T11:57:22;14.00;;;10.70;;
61096;SDS011;46977;50.936;6.908;2023-01-29T12:00:27;14.18;;;10.63;;
61096;SDS011;46977;50.936;6.908;2023-01-29T12:03:34;12.93;;;10.48;;
61096;SDS011;46977;50.936;6.908;2023-01-29T12:06:39;12.13;;;10.80;;
61096;SDS011;46977;50.936;6.908;2023-01-29T12:09:47;12.98;;;9.65;;
61096;SDS011;46977;50.936;6.908;2023-01-29T12:12:51;14.88;;;10.38;;
61096;SDS011;46977;50.936;6.908;2023-01-29T12:16:09;12.57;;;9.88;;
61096;SDS011;46977;50.936;6.908;2023-01-29T12:19:19;13.50;;;10.77;;
61096;SDS011;46977;50.936;6.908;2023-01-29T12:22:30;13.07;;;10.45;;
61096;SDS011;46977;50.936;6.908;2023-01-29T12:25:42;12.18;;;10.70;;
61096;SDS011;46977;50.936;6.908;2023-01-29T12:28:47;13.38;;;11.40;;
61096;SDS011;46977;50.936;6.908;2023-01-29T12:31:54;12.88;;;11.25;;
61096;SDS011;46977;50.936;6.908;2023-01-29T12:35:08;12.98;;;11.25;;
61096;SDS011;46977;50.936;6.908;2023-01-29T12:38:13;11.70;;;10.50;;
61096;SDS011;46977;50.936;6.908;2023-01-29T12:41:23;12.13;;;10.48;;
61096;SDS011;46977;50.936;6.908;2023-01-29T12:44:30;12.60;;;10.90;;
61096;SDS011;46977;50.936;6.908;2023-01-29T12:47:34;13.02;;;10.90;;
61096;SDS011;46977;50.936;6.908;2023-01-29T12:50:40;13.43;;;11.60;;
61096;SDS011;46977;50.936;6.908;2023-01-29T12:53:44;8.90;;;8.00;;
61096;SDS011;46977;50.936;6.908;2023-01-29T12:56:49;12.90;;;10.75;;
61096;SDS011;46977;50.936;6.908;2023-01-29T12:59:53;11.75;;;10.18;;
61096;SDS011;46977;50.936;6.908;2023-01-29T13:03:00;12.48;;;11.25;;
61096;SDS011;46977;50.936;6.908;2023-01-29T13:06:07;12.05;;;10.73;;
61096;SDS011;46977;50.936;6.908;2023-01-29T13:09:12;14.98;;;11.48;;
61096;SDS011;46977;50.936;6.908;2023-01-29T13:12:18;14.95;;;11.85;;
61096;SDS011;46977;50.936;6.908;2023-01-29T13:15:22;13.02;;;11.35;;
61096;SDS011;46977;50.936;6.908;2023-01-29T13:18:36;11.18;;;10.07;;
61096;SDS011;46977;50.936;6.908;2023-01-29T13:21:44;10.15;;;9.13;;
61096;SDS011;46977;50.936;6.908;2023-01-29T13:24:47;11.55;;;9.27;;
61096;SDS011;46977;50.936;6.908;2023-01-29T13:28:05;12.88;;;11.32;;
61096;SDS011;46977;50.936;6.908;2023-01-29T13:31:08;13.02;;;10.10;;
61096;SDS011;46977;50.936;6.908;2023-01-29T13:34:13;11.77;;;9.32;;
61096;SDS011;46977;50.936;6.908;2023-01-29T13:37:25;12.20;;;10.70;;
61096;SDS011;46977;50.936;6.908;2023-01-29T13:40:30;10.63;;;9.52;;
61096;SDS011;46977;50.936;6.908;2023-01-29T13:43:35;10.52;;;9.18;;
61096;SDS011;46977;50.936;6.908;2023-01-29T13:46:39;9.50;;;8.27;;
61096;SDS011;46977;50.936;6.908;2023-01-29T13:49:43;10.98;;;8.50;;
61096;SDS011;46977;50.936;6.908;2023-01-29T13:52:52;10.23;;;9.10;;
61096;SDS011;46977;50.936;6.908;2023-01-29T13:55:58;10.02;;;8.65;;
61096;SDS011;46977;50.936;6.908;2023-01-29T14:07:06;9.40;;;8.50;;
61096;SDS011;46977;50.936;6.908;2023-01-29T14:10:46;10.50;;;9.27;;
61096;SDS011;46977;50.936;6.908;2023-01-29T14:17:56;10.27;;;9.27;;
61096;SDS011;46977;50.936;6.908;2023-01-29T14:21:02;10.30;;;8.45;;
61096;SDS011;46977;50.936;6.908;2023-01-29T14:24:10;8.50;;;7.53;;
61096;SDS011;46977;50.936;6.908;2023-01-29T14:27:20;8.57;;;7.65;;
61096;SDS011;46977;50.936;6.908;2023-01-29T14:30:23;8.52;;;7.47;;
61096;SDS011;46977;50.936;6.908;2023-01-29T14:33:30;8.85;;;7.00;;
61096;SDS011;46977;50.936;6.908;2023-01-29T14:36:39;10.20;;;9.07;;
61096;SDS011;46977;50.936;6.908;2023-01-29T14:39:42;8.57;;;7.68;;
61096;SDS011;46977;50.936;6.908;2023-01-29T14:42:52;9.38;;;8.40;;
61096;SDS011;46977;50.936;6.908;2023-01-29T14:49:50;8.75;;;6.75;;
61096;SDS011;46977;50.936;6.908;2023-01-29T14:52:57;7.68;;;6.18;;
61096;SDS011;46977;50.936;6.908;2023-01-29T14:56:00;7.35;;;6.53;;
61096;SDS011;46977;50.936;6.908;2023-01-29T14:59:12;7.10;;;6.40;;
61096;SDS011;46977;50.936;6.908;2023-01-29T15:02:18;6.50;;;5.90;;
61096;SDS011;46977;50.936;6.908;2023-01-29T15:05:23;6.75;;;5.90;;
61096;SDS011;46977;50.936;6.908;2023-01-29T15:08:31;5.93;;;5.10;;
61096;SDS011;46977;50.936;6.908;2023-01-29T15:11:40;4.47;;;4.07;;
61096;SDS011;46977;50.936;6.908;2023-01-29T15:14:51;4.95;;;3.40;;
61096;SDS011;46977;50.936;6.908;2023-01-29T15:21:09;1.60;;;1.50;;
61096;SDS011;46977;50.936;6.908;2023-01-29T15:24:12;2.10;;;1.90;;
61096;SDS011;46977;50.936;6.908;2023-01-29T15:27:15;1.52;;;1.42;;
61096;SDS011;46977;50.936;6.908;2023-01-29T15:30:22;1.73;;;1.63;;
61096;SDS011;46977;50.936;6.908;2023-01-29T15:33:28;1.55;;;1.33;;
61096;SDS011;46977;50.936;6.908;2023-01-29T15:36:32;1.80;;;1.30;;
61096;SDS011;46977;50.936;6.908;2023-01-29T15:39:38;1.73;;;1.20;;
61096;SDS011;46977;50.936;6.908;2023-01-29T15:42:44;1.45;;;1.35;;
61096;SDS011;46977;50.936;6.908;2023-01-29T15:45:51;1.35;;;1.20;;
61096;SDS011;46977;50.936;6.908;2023-01-29T15:48:56;1.83;;;1.08;;
61096;SDS011;46977;50.936;6.908;2023-01-29T15:52:02;1.45;;;1.35;;
61096;SDS011;46977;50.936;6.908;2023-01-29T15:55:06;1.70;;;1.02;;
61096;SDS011;46977;50.936;6.908;2023-01-29T15:58:12;1.30;;;1.20;;
61096;SDS011;46977;50.936;6.908;2023-01-29T16:01:19;1.52;;;1.10;;
61096;SDS011;46977;50.936;6.908;2023-01-29T16:04:22;1.38;;;1.25;;
61096;SDS011;46977;50.936;6.908;2023-01-29T16:07:27;1.45;;;1.35;;
61096;SDS011;46977;50.936;6.908;2023-01-29T16:10:30;1.33;;;1.23;;
61096;SDS011;46977;50.936;6.908;2023-01-29T16:13:34;1.35;;;1.25;;
61096;SDS011;46977;50.936;6.908;2023-01-29T16:16:39;1.40;;;1.30;;
61096;SDS011;46977;50.936;6.908;2023-01-29T16:19:47;1.40;;;1.30;;
61096;SDS011;46977;50.936;6.908;2023-01-29T16:22:56;1.85;;;1.50;;
61096;SDS011;46977;50.936;6.908;2023-01-29T16:26:00;1.50;;;1.40;;
61096;SDS011;46977;50.936;6.908;2023-01-29T16:29:04;1.30;;;1.20;;
61096;SDS011;46977;50.936;6.908;2023-01-29T16:32:09;1.48;;;1.38;;
61096;SDS011;46977;50.936;6.908;2023-01-29T16:35:15;1.35;;;1.25;;
61096;SDS011;46977;50.936;6.908;2023-01-29T16:38:23;1.85;;;1.75;;
61096;SDS011;46977;50.936;6.908;2023-01-29T16:41:29;1.88;;;1.45;;
61096;SDS011;46977;50.936;6.908;2023-01-29T16:44:33;1.80;;;1.70;;
61096;SDS011;46977;50.936;6.908;2023-01-29T16:47:38;1.55;;;1.45;;
61096;SDS011;46977;50.936;6.908;2023-01-29T16:50:43;1.42;;;1.35;;
61096;SDS011;46977;50.936;6.908;2023-01-29T16:53:56;1.45;;;1.33;;
61096;SDS011;46977;50.936;6.908;2023-01-29T16:57:00;1.85;;;1.67;;
61096;SDS011;46977;50.936;6.908;2023-01-29T17:00:05;2.03;;;1.83;;
61096;SDS011;46977;50.936;6.908;2023-01-29T17:03:10;1.98;;;1.88;;
61096;SDS011;46977;50.936;6.908;2023-01-29T17:06:17;2.33;;;2.05;;
61096;SDS011;46977;50.936;6.908;2023-01-29T17:09:21;2.08;;;1.95;;
61096;SDS011;46977;50.936;6.908;2023-01-29T17:12:27;1.63;;;1.52;;
61096;SDS011;46977;50.936;6.908;2023-01-29T17:15:33;2.10;;;2.00;;
61096;SDS011;46977;50.936;6.908;2023-01-29T17:18:38;3.30;;;2.40;;
61096;SDS011;46977;50.936;6.908;2023-01-29T17:21:41;3.38;;;2.38;;
61096;SDS011;46977;50.936;6.908;2023-01-29T17:24:43;2.30;;;2.10;;
61096;SDS011;46977;50.936;6.908;2023-01-29T17:27:46;2.40;;;2.17;;
61096;SDS011;46977;50.936;6.908;2023-01-29T17:30:52;2.67;;;2.58;;
61096;SDS011;46977;50.936;6.908;2023-01-29T17:34:09;2.85;;;2.60;;
61096;SDS011;46977;50.936;6.908;2023-01-29T17:37:14;2.67;;;2.30;;
61096;SDS011;46977;50.936;6.908;2023-01-29T17:40:20;3.03;;;2.83;;
61096;SDS011;46977;50.936;6.908;2023-01-29T17:43:30;2.70;;;2.50;;
61096;SDS011;46977;50.936;6.908;2023-01-29T17:46:33;3.03;;;2.72;;
61096;SDS011;46977;50.936;6.908;2023-01-29T17:49:36;3.13;;;2.85;;
61096;SDS011;46977;50.936;6.908;2023-01-29T17:52:39;3.28;;;3.05;;
61096;SDS011;46977;50.936;6.908;2023-01-29T17:55:41;4.00;;;3.60;;
61096;SDS011;46977;50.936;6.908;2023-01-29T17:58:44;3.85;;;3.55;;
61096;SDS011;46977;50.936;6.908;2023-01-29T18:01:46;4.25;;;3.72;;
61096;SDS011;46977;50.936;6.908;2023-01-29T18:04:51;4.30;;;3.90;;
61096;SDS011;46977;50.936;6.908;2023-01-29T18:07:53;3.97;;;3.58;;
61096;SDS011;46977;50.936;6.908;2023-01-29T18:10:56;3.70;;;3.42;;
61096;SDS011;46977;50.936;6.908;2023-01-29T18:13:58;5.20;;;4.50;;
61096;SDS011;46977;50.936;6.908;2023-01-29T18:17:07;3.95;;;3.60;;
61096;SDS011;46977;50.936;6.908;2023-01-29T18:23:19;4.05;;;3.65;;
61096;SDS011;46977;50.936;6.908;2023-01-29T18:26:22;4.63;;;4.22;;
61096;SDS011;46977;50.936;6.908;2023-01-29T18:29:24;6.18;;;3.83;;
61096;SDS011;46977;50.936;6.908;2023-01-29T18:32:31;4.80;;;3.85;;
61096;SDS011;46977;50.936;6.908;2023-01-29T18:35:34;4.30;;;3.97;;
61096;SDS011;46977;50.936;6.908;2023-01-29T18:38:37;3.83;;;3.50;;
61096;SDS011;46977;50.936;6.908;2023-01-29T18:41:39;4.15;;;3.80;;
61096;SDS011;46977;50.936;6.908;2023-01-29T18:44:41;4.55;;;3.85;;
61096;SDS011;46977;50.936;6.908;2023-01-29T18:47:44;4.40;;;4.00;;
61096;SDS011;46977;50.936;6.908;2023-01-29T18:50:48;3.88;;;3.58;;